Time;durP1;ratioP1;P1;durP2;ratioP2;P2;SDS_P1;SDS_P2;PMS_P1;PMS_P2;Temp;Humidity;BMP_temperature;BMP_pressure;BME280_temperature;BME280_humidity;BME280_pressure;Samples;Min_cycle;Max_cycle;Signal;HPM_P1;HPM_P2
2022/07/23 00:01:32;;;;;;;6.10;3.55;;;;;;;;;;5013626;28;20044;-83
2022/07/23 00:03:58;;;;;;;5.82;3.40;;;;;;;;;;5014828;28;20041;-84
2022/07/23 00:06:24;;;;;;;6.55;3.72;;;;;;;;;;5001780;28;20065;-83
2022/07/23 00:08:50;;;;;;;6.50;3.50;;;;;;;;;;5001037;28;20152;-83
2022/07/23 00:11:18;;;;;;;7.13;3.40;;;;;;;;;;5007764;28;20556;-84
2022/07/23 00:13:44;;;;;;;5.15;3.30;;;;;;;;;;5015925;28;20029;-83
2022/07/23 00:16:09;;;;;;;5.57;3.35;;;;;;;;;;5002728;28;20056;-84
2022/07/23 00:18:35;;;;;;;5.07;3.20;;;;;;;;;;5014150;28;20037;-83
2022/07/23 00:21:00;;;;;;;5.40;3.40;;;;;;;;;;5000534;28;20026;-84
2022/07/23 00:23:27;;;;;;;7.20;3.28;;;;;;;;;;5007922;28;20527;-83
2022/07/23 00:25:52;;;;;;;7.05;3.75;;;;;;;;;;5001745;28;20092;-83
2022/07/23 00:28:18;;;;;;;5.60;3.17;;;;;;;;;;4996451;28;20560;-84
2022/07/23 00:30:44;;;;;;;6.65;3.70;;;;;;;;;;5001373;28;20029;-84
2022/07/23 00:33:10;;;;;;;6.90;4.03;;;;;;;;;;5015323;28;20044;-84
2022/07/23 00:35:37;;;;;;;6.78;3.50;;;;;;;;;;4998057;28;20054;-84
2022/07/23 00:38:04;;;;;;;5.78;3.30;;;;;;;;;;5003407;28;20484;-83
2022/07/23 00:40:30;;;;;;;5.95;3.53;;;;;;;;;;5002158;28;20490;-84
2022/07/23 00:42:56;;;;;;;4.70;3.22;;;;;;;;;;5007020;28;20040;-83
2022/07/23 00:45:21;;;;;;;6.65;3.85;;;;;;;;;;4996434;28;20037;-84
2022/07/23 00:47:46;;;;;;;6.13;3.50;;;;;;;;;;5015010;28;20478;-84
2022/07/23 00:50:12;;;;;;;6.20;3.75;;;;;;;;;;5002510;28;20367;-83
2022/07/23 00:52:38;;;;;;;7.25;3.80;;;;;;;;;;5001490;28;20054;-84
2022/07/23 00:55:05;;;;;;;6.13;3.63;;;;;;;;;;5007840;28;21072;-84
2022/07/23 00:57:34;;;;;;;6.28;3.35;;;;;;;;;;5000809;28;20044;-84
2022/07/23 00:59:59;;;;;;;5.57;3.25;;;;;;;;;;4999348;28;20033;-84
2022/07/23 01:02:26;;;;;;;5.50;3.40;;;;;;;;;;4989967;28;20040;-84
2022/07/23 01:04:51;;;;;;;4.75;3.33;;;;;;;;;;5005240;28;20103;-84
2022/07/23 01:07:18;;;;;;;6.38;3.30;;;;;;;;;;4999114;28;20034;-83
2022/07/23 01:09:44;;;;;;;5.28;3.40;;;;;;;;;;5002139;28;20034;-84
2022/07/23 01:12:09;;;;;;;5.38;3.50;;;;;;;;;;5009606;28;20497;-83
2022/07/23 01:14:35;;;;;;;5.80;3.22;;;;;;;;;;5002764;28;20041;-84
2022/07/23 01:17:00;;;;;;;6.32;3.45;;;;;;;;;;4999283;28;20507;-84
2022/07/23 01:19:28;;;;;;;5.97;3.80;;;;;;;;;;5008156;28;20029;-84
2022/07/23 01:21:55;;;;;;;7.07;4.05;;;;;;;;;;5001348;28;20171;-84
2022/07/23 01:24:20;;;;;;;6.35;3.90;;;;;;;;;;5001993;28;20038;-84
2022/07/23 01:26:47;;;;;;;6.82;3.33;;;;;;;;;;4999018;28;20036;-84
2022/07/23 01:29:13;;;;;;;7.95;3.92;;;;;;;;;;5016658;28;20049;-84
2022/07/23 01:31:38;;;;;;;6.35;3.78;;;;;;;;;;5000821;28;20504;-83
2022/07/23 01:34:04;;;;;;;5.32;4.05;;;;;;;;;;5010598;28;20102;-84
2022/07/23 01:36:30;;;;;;;6.18;3.70;;;;;;;;;;5015683;28;20539;-84
2022/07/23 01:38:55;;;;;;;6.47;3.75;;;;;;;;;;5001400;28;20063;-84
2022/07/23 01:41:21;;;;;;;6.93;3.83;;;;;;;;;;4998563;28;20070;-84
2022/07/23 01:43:49;;;;;;;5.55;3.30;;;;;;;;;;5013838;28;20037;-84
2022/07/23 01:46:15;;;;;;;5.72;3.53;;;;;;;;;;4992900;28;20486;-84
2022/07/23 01:48:40;;;;;;;6.07;3.92;;;;;;;;;;5002323;28;20092;-84
2022/07/23 01:51:06;;;;;;;5.35;3.45;;;;;;;;;;5009952;28;20542;-84
2022/07/23 01:53:31;;;;;;;6.78;3.60;;;;;;;;;;5015597;28;20523;-84
2022/07/23 01:55:59;;;;;;;5.70;3.53;;;;;;;;;;4998702;28;20050;-84
2022/07/23 01:58:25;;;;;;;6.75;3.72;;;;;;;;;;4999371;28;20041;-84
2022/07/23 02:00:51;;;;;;;6.25;3.63;;;;;;;;;;5009899;28;20052;-83
2022/07/23 02:03:16;;;;;;;7.78;3.80;;;;;;;;;;4997999;28;20482;-84
2022/07/23 02:05:44;;;;;;;7.45;4.30;;;;;;;;;;5012149;28;20044;-84
2022/07/23 02:08:09;;;;;;;6.43;4.15;;;;;;;;;;5007565;28;20481;-84
2022/07/23 02:10:35;;;;;;;5.82;4.03;;;;;;;;;;5012332;28;20091;-85
2022/07/23 02:13:00;;;;;;;6.13;4.40;;;;;;;;;;4995033;28;20513;-84
2022/07/23 02:15:26;;;;;;;5.65;3.80;;;;;;;;;;5014865;28;20456;-84
2022/07/23 02:17:51;;;;;;;6.10;3.50;;;;;;;;;;4998669;28;20037;-84
2022/07/23 02:20:16;;;;;;;6.35;3.95;;;;;;;;;;4994015;28;20045;-85
2022/07/23 02:22:44;;;;;;;6.38;3.92;;;;;;;;;;5012612;28;20080;-85
2022/07/23 02:25:10;;;;;;;5.45;3.55;;;;;;;;;;5014313;28;20033;-84
2022/07/23 02:27:36;;;;;;;6.82;3.75;;;;;;;;;;4997671;28;20546;-84
2022/07/23 02:30:02;;;;;;;7.22;3.88;;;;;;;;;;4984430;28;20034;-84
2022/07/23 02:32:28;;;;;;;4.95;3.47;;;;;;;;;;4996539;28;20421;-84
2022/07/23 02:34:53;;;;;;;5.78;4.07;;;;;;;;;;4996305;28;20033;-84
2022/07/23 02:37:18;;;;;;;7.38;3.97;;;;;;;;;;5012443;28;20037;-84
2022/07/23 02:39:44;;;;;;;7.32;4.13;;;;;;;;;;5008979;28;20436;-84
2022/07/23 02:42:09;;;;;;;8.05;4.53;;;;;;;;;;5010272;28;20041;-84
2022/07/23 02:44:35;;;;;;;5.80;3.47;;;;;;;;;;4999267;28;20037;-83
2022/07/23 02:47:00;;;;;;;7.20;3.70;;;;;;;;;;5013596;28;20089;-84
2022/07/23 02:49:25;;;;;;;6.55;4.13;;;;;;;;;;5012063;28;20036;-84
2022/07/23 02:51:51;;;;;;;6.05;3.78;;;;;;;;;;5001967;28;20053;-84
2022/07/23 02:54:16;;;;;;;7.32;4.00;;;;;;;;;;4998304;28;20037;-84
2022/07/23 02:56:42;;;;;;;6.55;3.83;;;;;;;;;;5001782;28;20038;-84
2022/07/23 02:59:07;;;;;;;8.27;3.80;;;;;;;;;;4999603;28;20040;-84
2022/07/23 03:01:32;;;;;;;6.50;3.78;;;;;;;;;;5013812;28;20052;-83
2022/07/23 03:03:58;;;;;;;6.72;4.18;;;;;;;;;;5015420;28;20096;-83
2022/07/23 03:06:23;;;;;;;5.70;3.78;;;;;;;;;;5014620;28;20125;-84
2022/07/23 03:08:48;;;;;;;6.95;3.88;;;;;;;;;;4999720;28;20036;-83
2022/07/23 03:11:14;;;;;;;6.80;3.60;;;;;;;;;;4998103;28;20092;-84
2022/07/23 03:13:40;;;;;;;6.75;3.60;;;;;;;;;;5006731;28;20029;-84
2022/07/23 03:16:05;;;;;;;5.63;3.53;;;;;;;;;;4999835;28;20042;-85
2022/07/23 03:18:31;;;;;;;6.78;3.80;;;;;;;;;;5005402;28;20509;-84
2022/07/23 03:20:56;;;;;;;5.95;3.60;;;;;;;;;;5020530;28;20037;-84
2022/07/23 03:23:22;;;;;;;7.35;3.78;;;;;;;;;;5012150;28;20030;-84
2022/07/23 03:25:48;;;;;;;8.00;4.00;;;;;;;;;;4981846;28;20654;-84
2022/07/23 03:28:17;;;;;;;5.70;3.50;;;;;;;;;;4984006;28;20129;-84
2022/07/23 03:30:47;;;;;;;5.78;3.38;;;;;;;;;;5005148;28;20030;-84
2022/07/23 03:33:13;;;;;;;7.03;3.88;;;;;;;;;;5006221;28;20439;-84
2022/07/23 03:35:38;;;;;;;8.55;3.90;;;;;;;;;;5013476;28;20053;-84
2022/07/23 03:38:04;;;;;;;6.22;3.40;;;;;;;;;;5013037;28;20330;-84
2022/07/23 03:40:29;;;;;;;5.65;3.13;;;;;;;;;;4997963;28;20057;-84
2022/07/23 03:42:54;;;;;;;5.53;3.28;;;;;;;;;;5003581;28;20087;-84
2022/07/23 03:45:22;;;;;;;7.28;3.40;;;;;;;;;;5012904;28;20042;-84
2022/07/23 03:47:47;;;;;;;;;;;;;;;;;;4998609;28;20037;-83
2022/07/23 03:50:13;;;;;;;9.75;3.55;;;;;;;;;;4999808;28;20365;-83
2022/07/23 03:52:38;;;;;;;6.10;2.83;;;;;;;;;;4997863;28;20040;-84
2022/07/23 03:55:04;;;;;;;6.05;2.78;;;;;;;;;;4995983;28;20040;-84
2022/07/23 03:57:30;;;;;;;5.30;2.88;;;;;;;;;;5012353;28;20030;-84
2022/07/23 03:59:55;;;;;;;5.68;2.72;;;;;;;;;;5011651;28;20038;-84
2022/07/23 04:02:20;;;;;;;4.45;2.45;;;;;;;;;;5004658;28;20684;-84
2022/07/23 04:04:46;;;;;;;4.38;2.45;;;;;;;;;;5011584;28;20048;-83
2022/07/23 04:07:12;;;;;;;6.80;2.92;;;;;;;;;;4999501;28;20030;-84
2022/07/23 04:09:40;;;;;;;5.05;2.30;;;;;;;;;;5006280;28;20041;-84
2022/07/23 04:12:05;;;;;;;;;;;;;;;;;;4998551;28;20037;-84
2022/07/23 04:14:31;;;;;;;6.82;2.70;;;;;;;;;;5016711;28;20356;-84
2022/07/23 04:16:56;;;;;;;4.57;2.20;;;;;;;;;;5007747;28;20042;-84
2022/07/23 04:19:21;;;;;;;9.02;2.78;;;;;;;;;;5014981;28;20404;-85
2022/07/23 04:21:47;;;;;;;3.88;2.33;;;;;;;;;;5007809;28;20485;-84
2022/07/23 04:24:12;;;;;;;4.75;2.00;;;;;;;;;;4997805;28;20600;-84
2022/07/23 04:26:37;;;;;;;6.30;2.15;;;;;;;;;;4999193;28;20029;-84
2022/07/23 04:29:03;;;;;;;14.82;2.53;;;;;;;;;;4998991;28;20485;-84
2022/07/23 04:31:28;;;;;;;5.50;2.25;;;;;;;;;;5003048;28;20493;-85
2022/07/23 04:33:53;;;;;;;4.82;2.15;;;;;;;;;;5017683;28;20484;-85
2022/07/23 04:36:19;;;;;;;5.13;2.30;;;;;;;;;;4999286;28;20464;-84
2022/07/23 04:38:44;;;;;;;5.88;2.78;;;;;;;;;;5008828;28;20444;-84
2022/07/23 04:41:09;;;;;;;6.10;2.55;;;;;;;;;;4991253;28;20038;-84
2022/07/23 04:43:35;;;;;;;8.27;3.10;;;;;;;;;;5000112;28;20044;-84
2022/07/23 04:46:00;;;;;;;6.05;2.45;;;;;;;;;;5002029;28;20144;-85
2022/07/23 04:48:25;;;;;;;5.65;3.20;;;;;;;;;;4998719;28;20126;-85
2022/07/23 04:50:50;;;;;;;7.25;2.70;;;;;;;;;;4999077;28;20473;-85
2022/07/23 04:53:18;;;;;;;7.60;3.13;;;;;;;;;;5016029;28;20064;-84
2022/07/23 04:55:43;;;;;;;5.95;2.78;;;;;;;;;;4996331;28;20060;-84
2022/07/23 04:58:09;;;;;;;7.30;3.00;;;;;;;;;;5023574;28;20381;-84
2022/07/23 05:00:34;;;;;;;8.00;3.30;;;;;;;;;;5017483;28;20057;-83
2022/07/23 05:02:59;;;;;;;6.72;2.67;;;;;;;;;;5002566;28;20051;-84
2022/07/23 05:05:25;;;;;;;8.30;3.10;;;;;;;;;;4984566;28;20096;-84
2022/07/23 05:07:50;;;;;;;7.38;3.03;;;;;;;;;;5001345;28;20030;-83
2022/07/23 05:10:16;;;;;;;6.53;3.17;;;;;;;;;;5000301;28;20405;-84
2022/07/23 05:12:41;;;;;;;6.22;3.20;;;;;;;;;;5001714;28;20033;-83
2022/07/23 05:15:07;;;;;;;7.05;2.83;;;;;;;;;;5000202;28;20047;-84
2022/07/23 05:17:32;;;;;;;6.70;3.10;;;;;;;;;;5011511;28;20575;-85
2022/07/23 05:19:57;;;;;;;7.13;2.95;;;;;;;;;;5003488;28;20026;-85
2022/07/23 05:22:23;;;;;;;5.68;3.10;;;;;;;;;;4999047;28;20474;-84
2022/07/23 05:24:48;;;;;;;5.95;2.90;;;;;;;;;;5006969;28;20481;-84
2022/07/23 05:27:13;;;;;;;6.22;3.17;;;;;;;;;;4997512;28;20485;-84
2022/07/23 05:29:39;;;;;;;5.15;2.92;;;;;;;;;;4999848;28;20086;-85
2022/07/23 05:32:04;;;;;;;6.50;3.00;;;;;;;;;;4984612;28;20121;-85
2022/07/23 05:34:30;;;;;;;5.80;2.75;;;;;;;;;;5006657;28;20038;-85
2022/07/23 05:36:55;;;;;;;5.72;2.90;;;;;;;;;;5001321;28;20045;-85
2022/07/23 05:39:21;;;;;;;9.52;3.05;;;;;;;;;;5007119;28;20068;-85
2022/07/23 05:41:46;;;;;;;5.72;3.38;;;;;;;;;;5002103;28;20038;-85
2022/07/23 05:44:11;;;;;;;4.53;2.90;;;;;;;;;;5001618;28;20030;-84
2022/07/23 05:46:36;;;;;;;6.78;2.92;;;;;;;;;;4996960;28;20161;-84
2022/07/23 05:49:02;;;;;;;5.45;2.80;;;;;;;;;;5014037;28;20092;-84
2022/07/23 05:51:27;;;;;;;6.97;3.22;;;;;;;;;;5000064;28;20096;-84
2022/07/23 05:53:53;;;;;;;6.38;3.05;;;;;;;;;;5001593;28;20033;-84
2022/07/23 05:56:18;;;;;;;4.63;2.85;;;;;;;;;;5013732;28;20045;-85
2022/07/23 05:58:44;;;;;;;5.85;3.15;;;;;;;;;;5000344;28;20050;-85
2022/07/23 06:01:11;;;;;;;6.45;3.47;;;;;;;;;;4991121;28;20048;-84
2022/07/23 06:03:37;;;;;;;8.57;3.38;;;;;;;;;;5022964;28;20080;-84
2022/07/23 06:06:02;;;;;;;7.38;3.45;;;;;;;;;;4983310;28;20473;-84
2022/07/23 06:08:28;;;;;;;6.45;3.40;;;;;;;;;;5000940;28;20210;-84
2022/07/23 06:10:53;;;;;;;6.45;3.30;;;;;;;;;;4994203;28;20038;-84
2022/07/23 06:13:19;;;;;;;9.00;3.70;;;;;;;;;;5006435;28;20238;-84
2022/07/23 06:15:44;;;;;;;6.38;3.65;;;;;;;;;;5005957;28;20432;-84
2022/07/23 06:18:09;;;;;;;5.72;3.13;;;;;;;;;;5001354;28;20059;-84
2022/07/23 06:20:35;;;;;;;6.25;3.53;;;;;;;;;;5018327;28;20049;-84
2022/07/23 06:23:03;;;;;;;5.43;3.22;;;;;;;;;;4998595;28;20120;-83
2022/07/23 06:25:28;;;;;;;7.05;3.55;;;;;;;;;;4997522;28;20033;-83
2022/07/23 06:27:53;;;;;;;5.20;3.42;;;;;;;;;;5012773;28;20041;-83
2022/07/23 06:30:19;;;;;;;5.25;3.08;;;;;;;;;;5000364;28;20471;-84
2022/07/23 06:32:45;;;;;;;7.15;3.25;;;;;;;;;;5012775;28;20036;-84
2022/07/23 06:35:10;;;;;;;9.32;4.10;;;;;;;;;;4998877;28;20035;-84
2022/07/23 06:37:36;;;;;;;5.72;2.80;;;;;;;;;;4996746;28;20484;-84
2022/07/23 06:40:02;;;;;;;6.00;3.50;;;;;;;;;;4997002;28;20123;-84
2022/07/23 06:42:27;;;;;;;5.95;3.40;;;;;;;;;;4998987;28;20087;-84
2022/07/23 06:44:53;;;;;;;7.68;3.13;;;;;;;;;;4999225;28;20057;-84
2022/07/23 06:47:21;;;;;;;7.97;3.20;;;;;;;;;;5000551;28;20030;-84
2022/07/23 06:49:46;;;;;;;7.05;3.40;;;;;;;;;;5018548;28;20552;-84
2022/07/23 06:52:11;;;;;;;6.85;3.53;;;;;;;;;;4984967;28;20073;-83
2022/07/23 06:54:37;;;;;;;6.50;3.63;;;;;;;;;;5009876;28;20033;-84
2022/07/23 06:57:02;;;;;;;8.48;4.00;;;;;;;;;;5005254;28;20069;-84
2022/07/23 06:59:28;;;;;;;7.50;4.15;;;;;;;;;;4995538;28;20049;-84
2022/07/23 07:01:53;;;;;;;7.47;3.72;;;;;;;;;;4994181;28;20034;-84
2022/07/23 07:04:18;;;;;;;9.10;3.70;;;;;;;;;;4997299;28;20553;-84
2022/07/23 07:06:44;;;;;;;6.38;3.47;;;;;;;;;;4996383;28;20425;-84
2022/07/23 07:09:09;;;;;;;11.23;3.70;;;;;;;;;;4994628;28;20520;-84
2022/07/23 07:11:34;;;;;;;6.15;3.42;;;;;;;;;;5005395;28;20045;-85
2022/07/23 07:14:00;;;;;;;8.70;3.67;;;;;;;;;;4981537;28;20076;-84
2022/07/23 07:16:25;;;;;;;8.05;3.00;;;;;;;;;;5012076;28;20584;-85
2022/07/23 07:18:50;;;;;;;7.38;3.35;;;;;;;;;;4995969;28;20037;-84
2022/07/23 07:21:16;;;;;;;6.95;3.65;;;;;;;;;;4998929;28;20472;-84
2022/07/23 07:23:41;;;;;;;6.55;3.20;;;;;;;;;;4997541;28;20556;-84
2022/07/23 07:26:06;;;;;;;7.15;3.30;;;;;;;;;;4982017;28;20513;-84
2022/07/23 07:28:32;;;;;;;6.38;3.47;;;;;;;;;;4996603;28;20049;-84
2022/07/23 07:30:57;;;;;;;8.18;3.50;;;;;;;;;;5005303;28;20038;-84
2022/07/23 07:33:22;;;;;;;7.63;4.30;;;;;;;;;;5000959;28;20493;-84
2022/07/23 07:35:48;;;;;;;7.63;3.80;;;;;;;;;;4993544;28;20030;-84
2022/07/23 07:38:13;;;;;;;7.07;3.53;;;;;;;;;;5003977;28;20884;-84
2022/07/23 07:40:39;;;;;;;7.72;3.75;;;;;;;;;;5011651;28;20113;-84
2022/07/23 07:43:04;;;;;;;8.10;3.92;;;;;;;;;;4999136;28;20042;-84
2022/07/23 07:45:29;;;;;;;6.85;3.78;;;;;;;;;;4999211;28;20025;-84
2022/07/23 07:47:55;;;;;;;5.93;3.40;;;;;;;;;;5000558;28;20556;-84
2022/07/23 07:50:21;;;;;;;5.68;3.85;;;;;;;;;;5002143;28;20038;-84
2022/07/23 07:52:46;;;;;;;7.53;3.95;;;;;;;;;;5017881;28;20160;-84
2022/07/23 07:55:12;;;;;;;8.27;3.95;;;;;;;;;;5002287;28;20050;-85
2022/07/23 07:57:38;;;;;;;5.22;3.53;;;;;;;;;;4996481;28;20501;-84
2022/07/23 08:00:09;;;;;;;7.28;3.78;;;;;;;;;;5001821;28;20551;-84
2022/07/23 08:02:48;;;;;;;7.57;3.80;;;;;;;;;;5018128;28;20416;-85
2022/07/23 08:05:14;;;;;;;7.00;4.03;;;;;;;;;;5008029;28;20568;-84
2022/07/23 08:07:40;;;;;;;7.05;3.28;;;;;;;;;;5007134;28;20083;-85
2022/07/23 08:10:09;;;;;;;6.13;3.38;;;;;;;;;;5016486;28;20528;-85
2022/07/23 08:12:38;;;;;;;7.07;3.85;;;;;;;;;;5009297;28;20041;-85
2022/07/23 08:15:05;;;;;;;5.65;3.35;;;;;;;;;;5018493;28;20108;-85
2022/07/23 08:17:30;;;;;;;7.15;3.58;;;;;;;;;;5002033;28;20041;-87
2022/07/23 08:19:55;;;;;;;7.90;4.03;;;;;;;;;;5009752;28;20516;-86
2022/07/23 08:22:21;;;;;;;6.55;4.18;;;;;;;;;;5016066;28;20033;-86
2022/07/23 08:24:46;;;;;;;9.18;5.13;;;;;;;;;;5013486;28;20034;-85
2022/07/23 08:27:11;;;;;;;9.68;4.47;;;;;;;;;;5003235;28;20504;-86
2022/07/23 08:29:37;;;;;;;8.32;4.28;;;;;;;;;;5002826;28;20041;-86
2022/07/23 08:32:05;;;;;;;7.68;4.03;;;;;;;;;;5002387;28;20034;-86
2022/07/23 08:34:30;;;;;;;7.32;3.78;;;;;;;;;;5000429;28;20053;-86
2022/07/23 08:36:56;;;;;;;8.30;4.30;;;;;;;;;;4998082;28;20075;-86
2022/07/23 08:39:21;;;;;;;7.28;3.97;;;;;;;;;;5007557;28;20171;-86
2022/07/23 08:41:47;;;;;;;7.00;3.85;;;;;;;;;;4996119;28;20520;-86
2022/07/23 08:44:14;;;;;;;7.25;3.53;;;;;;;;;;5005779;28;20041;-86
2022/07/23 08:46:41;;;;;;;7.07;3.80;;;;;;;;;;4990977;28;20511;-86
2022/07/23 08:49:06;;;;;;;8.88;3.65;;;;;;;;;;5002336;28;20257;-86
2022/07/23 08:51:32;;;;;;;5.38;2.88;;;;;;;;;;5014069;28;20905;-86
2022/07/23 08:53:58;;;;;;;5.72;2.38;;;;;;;;;;5003765;28;20121;-86
2022/07/23 08:56:23;;;;;;;6.32;2.95;;;;;;;;;;5016495;28;20042;-87
2022/07/23 08:58:49;;;;;;;6.13;2.67;;;;;;;;;;5003823;28;20515;-86
2022/07/23 09:01:14;;;;;;;4.45;2.50;;;;;;;;;;5002500;28;20567;-86
2022/07/23 09:03:39;;;;;;;6.78;2.45;;;;;;;;;;4996944;28;20060;-87
2022/07/23 09:06:05;;;;;;;4.90;2.67;;;;;;;;;;5015301;28;20030;-86
2022/07/23 09:08:40;;;;;;;5.05;2.40;;;;;;;;;;5016107;28;20041;-87
2022/07/23 09:11:08;;;;;;;5.72;2.50;;;;;;;;;;5000561;28;20072;-86
2022/07/23 09:13:46;;;;;;;6.22;2.42;;;;;;;;;;5014164;28;20129;-87
2022/07/23 09:16:34;;;;;;;4.25;1.80;;;;;;;;;;5013967;28;20030;-85
2022/07/23 09:19:02;;;;;;;3.72;1.90;;;;;;;;;;4998221;28;20045;-85
2022/07/23 09:21:30;;;;;;;3.10;1.80;;;;;;;;;;5012440;28;20088;-85
2022/07/23 09:24:03;;;;;;;6.65;2.03;;;;;;;;;;5000043;28;20040;-84
2022/07/23 09:26:34;;;;;;;5.75;2.17;;;;;;;;;;5012824;28;20049;-85
2022/07/23 09:29:05;;;;;;;4.97;2.15;;;;;;;;;;5015734;28;20091;-84
2022/07/23 09:31:52;;;;;;;5.13;2.80;;;;;;;;;;5018036;28;20037;-84
2022/07/23 09:34:25;;;;;;;4.03;2.22;;;;;;;;;;5013996;28;20037;-85
2022/07/23 09:36:53;;;;;;;5.18;2.20;;;;;;;;;;5006577;28;20038;-84
2022/07/23 09:39:32;;;;;;;7.50;2.47;;;;;;;;;;5008131;28;20473;-84
2022/07/23 09:42:12;;;;;;;6.22;2.30;;;;;;;;;;4988399;28;20047;-87
2022/07/23 09:44:42;;;;;;;7.18;2.42;;;;;;;;;;4999694;28;20579;-84
2022/07/23 09:47:07;;;;;;;4.32;2.13;;;;;;;;;;5009707;28;20397;-84
2022/07/23 09:49:32;;;;;;;4.97;2.20;;;;;;;;;;5006392;28;20038;-85
2022/07/23 09:52:00;;;;;;;4.63;2.05;;;;;;;;;;5011009;28;20029;-84
2022/07/23 09:54:36;;;;;;;4.13;1.98;;;;;;;;;;5004042;28;20561;-85
2022/07/23 09:57:15;;;;;;;5.57;2.00;;;;;;;;;;5000248;28;20042;-84
2022/07/23 09:59:41;;;;;;;3.63;1.80;;;;;;;;;;5004229;28;20489;-85
2022/07/23 10:02:09;;;;;;;4.15;1.80;;;;;;;;;;5009231;28;20567;-84
2022/07/23 10:04:35;;;;;;;4.03;1.67;;;;;;;;;;4992012;28;20137;-84
2022/07/23 10:07:03;;;;;;;5.57;2.00;;;;;;;;;;4997096;28;20453;-83
2022/07/23 10:09:33;;;;;;;5.60;1.80;;;;;;;;;;5012305;28;20091;-83
2022/07/23 10:14:45;;;;;;;;;;;;;;;;;;5017486;28;20096;-84
2022/07/23 10:17:10;;;;;;;4.38;1.52;;;;;;;;;;4999240;28;20062;-84
2022/07/23 10:19:36;;;;;;;3.28;1.50;;;;;;;;;;5001148;28;20060;-85
2022/07/23 10:22:20;;;;;;;3.78;1.33;;;;;;;;;;4993699;28;20505;-84
2022/07/23 10:25:12;;;;;;;4.07;1.63;;;;;;;;;;5011148;28;20053;-83
2022/07/23 10:27:59;;;;;;;3.90;1.52;;;;;;;;;;4990836;28;20038;-84
2022/07/23 10:30:43;;;;;;;4.45;1.60;;;;;;;;;;5020030;28;20052;-84
2022/07/23 10:33:27;;;;;;;3.72;1.60;;;;;;;;;;5022938;28;20100;-84
2022/07/23 10:36:10;;;;;;;5.13;1.80;;;;;;;;;;4997494;28;20030;-84
2022/07/23 10:39:14;;;;;;;3.90;1.80;;;;;;;;;;5022400;28;20041;-85
2022/07/23 10:41:40;;;;;;;4.63;1.77;;;;;;;;;;5015270;28;20129;-85
2022/07/23 10:44:14;;;;;;;4.68;1.50;;;;;;;;;;5000117;28;20034;-85
2022/07/23 10:49:39;;;;;;;4.70;1.50;;;;;;;;;;5016448;28;20091;-84
2022/07/23 10:52:13;;;;;;;5.35;1.67;;;;;;;;;;5010497;28;20030;-85
2022/07/23 10:54:46;;;;;;;4.03;1.83;;;;;;;;;;5022013;28;20034;-85
2022/07/23 10:57:12;;;;;;;3.88;1.40;;;;;;;;;;5014897;28;20068;-85
2022/07/23 11:00:16;;;;;;;3.63;1.90;;;;;;;;;;4999674;28;20037;-85
2022/07/23 11:02:43;;;;;;;5.05;1.63;;;;;;;;;;5011111;28;20644;-85
2022/07/23 11:05:10;;;;;;;3.33;1.42;;;;;;;;;;4999296;28;20045;-84
2022/07/23 11:07:37;;;;;;;4.13;1.80;;;;;;;;;;4997005;28;20171;-85
2022/07/23 11:10:04;;;;;;;4.60;1.63;;;;;;;;;;4995834;28;20045;-85
2022/07/23 11:12:29;;;;;;;8.65;1.50;;;;;;;;;;4999707;28;20485;-84
2022/07/23 11:15:01;;;;;;;4.43;1.50;;;;;;;;;;5012435;28;20030;-85
2022/07/23 11:17:27;;;;;;;4.05;1.50;;;;;;;;;;4997421;28;20030;-85
2022/07/23 11:20:11;;;;;;;5.13;1.63;;;;;;;;;;4998010;28;20048;-84
2022/07/23 11:22:48;;;;;;;6.05;1.50;;;;;;;;;;5019479;28;20045;-85
2022/07/23 11:25:31;;;;;;;3.33;1.30;;;;;;;;;;5010690;28;20045;-84
2022/07/23 11:28:17;;;;;;;3.97;1.60;;;;;;;;;;5006810;28;20032;-85
2022/07/23 11:30:44;;;;;;;5.25;1.60;;;;;;;;;;5017946;28;20117;-85
2022/07/23 11:33:12;;;;;;;4.90;1.77;;;;;;;;;;5009811;28;20634;-84
2022/07/23 11:35:42;;;;;;;3.88;1.65;;;;;;;;;;5017675;28;20080;-84
2022/07/23 11:38:17;;;;;;;4.07;1.50;;;;;;;;;;5000724;28;20172;-84
2022/07/23 11:40:58;;;;;;;4.25;1.65;;;;;;;;;;5008479;28;20060;-83
2022/07/23 11:43:23;;;;;;;5.13;1.70;;;;;;;;;;5001901;28;20033;-83
2022/07/23 11:45:51;;;;;;;3.75;1.70;;;;;;;;;;5008352;28;20748;-84
2022/07/23 11:48:22;;;;;;;4.90;1.70;;;;;;;;;;5003935;28;20041;-84
2022/07/23 11:50:48;;;;;;;3.50;1.40;;;;;;;;;;5032419;28;20069;-82
2022/07/23 11:53:24;;;;;;;4.63;1.80;;;;;;;;;;5010465;28;20116;-83
2022/07/23 11:55:49;;;;;;;3.83;1.60;;;;;;;;;;5004986;28;20038;-84
2022/07/23 11:58:15;;;;;;;4.03;1.40;;;;;;;;;;5001490;28;20091;-85
2022/07/23 12:00:41;;;;;;;3.70;1.65;;;;;;;;;;4999019;28;20042;-84
2022/07/23 12:03:07;;;;;;;4.65;1.83;;;;;;;;;;5003035;28;20121;-84
2022/07/23 12:05:35;;;;;;;4.57;1.77;;;;;;;;;;5017471;28;20382;-84
2022/07/23 12:08:01;;;;;;;4.47;1.70;;;;;;;;;;5001483;28;20044;-84
2022/07/23 12:10:29;;;;;;;4.30;1.60;;;;;;;;;;5003093;28;20084;-84
2022/07/23 12:12:59;;;;;;;3.75;1.60;;;;;;;;;;5014752;28;20076;-83
2022/07/23 12:15:39;;;;;;;4.03;1.75;;;;;;;;;;5013135;28;20425;-83
2022/07/23 12:18:07;;;;;;;4.20;1.88;;;;;;;;;;5018634;28;20034;-85
2022/07/23 12:20:41;;;;;;;3.92;1.70;;;;;;;;;;5015712;28;20033;-84
2022/07/23 12:23:08;;;;;;;3.97;1.98;;;;;;;;;;4999975;28;20037;-84
2022/07/23 12:25:35;;;;;;;3.83;2.20;;;;;;;;;;5001776;28;20685;-84
2022/07/23 12:28:33;;;;;;;3.38;1.80;;;;;;;;;;5003763;28;20424;-84
2022/07/23 12:30:58;;;;;;;3.92;1.77;;;;;;;;;;5019935;28;20029;-84
2022/07/23 12:33:30;;;;;;;4.13;2.00;;;;;;;;;;5013753;28;20038;-84
2022/07/23 12:35:59;;;;;;;4.90;2.30;;;;;;;;;;5000793;28;20042;-83
2022/07/23 12:38:27;;;;;;;5.20;2.10;;;;;;;;;;5008741;28;20399;-83
2022/07/23 12:40:54;;;;;;;3.97;1.98;;;;;;;;;;5012871;28;20040;-83
2022/07/23 12:43:28;;;;;;;4.97;2.03;;;;;;;;;;4998561;28;20036;-84
2022/07/23 12:46:02;;;;;;;3.95;2.13;;;;;;;;;;5009065;28;20037;-84
2022/07/23 12:48:30;;;;;;;3.45;1.90;;;;;;;;;;4999260;28;20383;-84
2022/07/23 12:50:57;;;;;;;;;;;;;;;;;;4999102;28;20258;-84
2022/07/23 12:53:44;;;;;;;3.50;1.90;;;;;;;;;;5016439;28;19924;-84
2022/07/23 12:56:12;;;;;;;4.30;1.90;;;;;;;;;;5012209;28;20117;-84
2022/07/23 12:58:48;;;;;;;4.13;2.17;;;;;;;;;;5006964;28;20050;-84
2022/07/23 13:01:34;;;;;;;5.13;2.42;;;;;;;;;;5006743;28;20037;-84
2022/07/23 13:04:02;;;;;;;4.70;2.20;;;;;;;;;;5007117;28;20045;-84
2022/07/23 13:06:29;;;;;;;5.03;2.22;;;;;;;;;;5023467;28;20056;-84
2022/07/23 13:08:54;;;;;;;3.72;2.03;;;;;;;;;;5004088;28;20496;-84
2022/07/23 13:11:19;;;;;;;3.33;1.83;;;;;;;;;;4989770;28;20038;-84
2022/07/23 13:13:45;;;;;;;3.53;1.92;;;;;;;;;;4995972;28;20080;-84
2022/07/23 13:16:10;;;;;;;5.80;2.22;;;;;;;;;;5006284;28;20104;-84
2022/07/23 13:18:35;;;;;;;3.88;1.80;;;;;;;;;;5016340;28;20038;-85
2022/07/23 13:21:01;;;;;;;3.55;1.73;;;;;;;;;;4983649;28;20039;-84
2022/07/23 13:23:27;;;;;;;3.95;2.17;;;;;;;;;;5006294;28;20041;-84
2022/07/23 13:25:52;;;;;;;6.13;2.30;;;;;;;;;;5000372;28;20977;-84
2022/07/23 13:28:19;;;;;;;4.65;1.77;;;;;;;;;;5006081;28;20037;-83
2022/07/23 13:30:46;;;;;;;3.30;1.77;;;;;;;;;;4995005;28;20482;-84
2022/07/23 13:33:11;;;;;;;3.97;1.90;;;;;;;;;;4988019;28;20030;-84
2022/07/23 13:35:37;;;;;;;3.53;1.83;;;;;;;;;;5000636;28;20041;-84
2022/07/23 13:38:09;;;;;;;3.70;1.60;;;;;;;;;;4999706;28;20053;-85
2022/07/23 13:40:39;;;;;;;5.45;2.00;;;;;;;;;;5004714;28;20061;-84
2022/07/23 13:43:06;;;;;;;3.03;1.60;;;;;;;;;;4998982;28;20601;-85
2022/07/23 13:45:33;;;;;;;3.10;1.70;;;;;;;;;;5005854;28;20472;-85
2022/07/23 13:47:58;;;;;;;4.47;1.85;;;;;;;;;;4997526;28;20089;-83
2022/07/23 13:50:23;;;;;;;4.15;1.48;;;;;;;;;;5014196;28;20030;-83
2022/07/23 13:52:49;;;;;;;3.67;1.50;;;;;;;;;;5001689;28;20452;-84
2022/07/23 13:55:14;;;;;;;3.30;1.52;;;;;;;;;;5005958;28;20038;-85
2022/07/23 13:57:39;;;;;;;3.60;1.65;;;;;;;;;;5001241;28;20068;-84
2022/07/23 14:00:07;;;;;;;3.85;1.83;;;;;;;;;;4999657;28;20038;-84
2022/07/23 14:02:33;;;;;;;3.78;1.40;;;;;;;;;;4995918;28;20065;-83
2022/07/23 14:04:58;;;;;;;3.83;1.38;;;;;;;;;;4999897;28;20480;-84
2022/07/23 14:07:23;;;;;;;4.80;1.80;;;;;;;;;;5005701;28;20117;-83
2022/07/23 14:09:49;;;;;;;2.90;1.25;;;;;;;;;;4999391;28;20042;-84
2022/07/23 14:12:15;;;;;;;2.97;1.77;;;;;;;;;;4980301;28;20035;-84
2022/07/23 14:14:40;;;;;;;4.75;1.60;;;;;;;;;;5001863;28;20037;-84
2022/07/23 14:17:06;;;;;;;4.40;1.77;;;;;;;;;;5015454;28;20489;-84
2022/07/23 14:19:31;;;;;;;2.95;1.45;;;;;;;;;;5009559;28;20493;-84
2022/07/23 14:21:57;;;;;;;3.63;1.60;;;;;;;;;;4979571;28;20037;-84
2022/07/23 14:24:23;;;;;;;4.68;1.40;;;;;;;;;;4980660;28;20038;-84
2022/07/23 14:26:48;;;;;;;4.93;1.42;;;;;;;;;;5004340;28;20030;-83
2022/07/23 14:29:13;;;;;;;4.05;1.58;;;;;;;;;;5014903;28;20061;-85
2022/07/23 14:31:39;;;;;;;4.50;1.40;;;;;;;;;;5012296;28;20481;-84
2022/07/23 14:34:04;;;;;;;3.20;1.10;;;;;;;;;;5000442;28;20077;-85
2022/07/23 14:36:29;;;;;;;2.30;0.98;;;;;;;;;;4999460;28;20457;-84
2022/07/23 14:38:55;;;;;;;3.58;1.20;;;;;;;;;;4999402;28;20040;-84
2022/07/23 14:41:20;;;;;;;3.28;1.23;;;;;;;;;;4999996;28;20072;-83
2022/07/23 14:43:46;;;;;;;3.53;1.20;;;;;;;;;;5000390;28;20497;-84
2022/07/23 14:46:12;;;;;;;3.45;1.20;;;;;;;;;;5014448;28;20117;-84
2022/07/23 14:48:40;;;;;;;2.17;1.10;;;;;;;;;;4995507;28;20048;-83
2022/07/23 14:51:06;;;;;;;3.80;1.40;;;;;;;;;;5006092;28;20030;-84